Urania, Louisiana
Current Conditions -  °F | °C
As of 4:53 AM on Friday 19 Dec 2014 (Local Time) from KESF Reporting Station
Moderate Rain Moderate Rain  
Wind Chill: 51°   Ceiling: 300
Heat Index: 51°   Visibility: 10mi
Dew Point: 50°   Wind: 6mph
Humidity: 96%   Direction: NA
Pressure: 30.1"   Gusts: NA
Location:  31.86°N, 92.3°W
Report Text: KESF 191053Z AUTO VRB05KT 10SM RA OVC003 11/10 A3010 RMK AO2 SLP191 P0007 T01060100
Loading
Personal Weather Stations






























Interactive Weather Map New forecast layout! Learn more

10-Day Weather Forecast

Advertisements
Track Severe Weather on mobile